Time;durP1;ratioP1;P1;durP2;ratioP2;P2;SDS_P1;SDS_P2;PMS_P1;PMS_P2;Temp;Humidity;BMP_temperature;BMP_pressure;BME280_temperature;BME280_humidity;BME280_pressure;Samples;Min_cycle;Max_cycle;Signal;HPM_P1;HPM_P2
2023/11/15 00:00:38;;;;;;;4.22;1.67;;;11.60;99.90;;;;;;5097939;28;20039;-64
2023/11/15 00:03:04;;;;;;;4.95;1.10;;;11.50;99.90;;;;;;5100717;28;20026;-64
2023/11/15 00:05:30;;;;;;;2.88;0.57;;;11.50;99.90;;;;;;5098109;28;20028;-63
2023/11/15 00:07:56;;;;;;;3.72;1.00;;;11.50;99.90;;;;;;5099300;28;20028;-64
2023/11/15 00:10:23;;;;;;;1.60;0.40;;;11.50;99.90;;;;;;5100536;28;20039;-63
2023/11/15 00:12:49;;;;;;;3.35;1.30;;;11.50;99.90;;;;;;5098369;28;20070;-64
2023/11/15 00:15:16;;;;;;;1.75;0.70;;;11.60;99.90;;;;;;5100443;28;20055;-63
2023/11/15 00:17:41;;;;;;;0.93;0.50;;;11.60;99.90;;;;;;5096689;28;20032;-63
2023/11/15 00:20:12;;;;;;;1.00;0.60;;;11.60;99.90;;;;;;5095388;28;20697;-63
2023/11/15 00:22:40;;;;;;;2.30;0.90;;;11.60;99.90;;;;;;5093914;28;20437;-63
2023/11/15 00:25:07;;;;;;;2.05;0.65;;;11.70;99.90;;;;;;5099083;27;20459;-63
2023/11/15 00:27:33;;;;;;;2.45;0.60;;;11.70;99.90;;;;;;5097849;28;20028;-64
2023/11/15 00:30:00;;;;;;;2.08;0.40;;;11.70;99.90;;;;;;5093052;28;20035;-64
2023/11/15 00:32:27;;;;;;;4.35;0.52;;;11.80;99.90;;;;;;5099488;28;20034;-63
2023/11/15 00:34:53;;;;;;;2.97;0.57;;;11.80;99.90;;;;;;5097460;28;20494;-63
2023/11/15 00:37:19;;;;;;;2.00;0.80;;;11.80;99.90;;;;;;5095298;28;20499;-63
2023/11/15 00:39:45;;;;;;;2.67;0.90;;;11.80;99.90;;;;;;5097663;28;20035;-64
2023/11/15 00:42:11;;;;;;;2.10;0.73;;;11.70;99.90;;;;;;5097561;28;20023;-64
2023/11/15 00:44:38;;;;;;;1.98;0.68;;;11.80;99.90;;;;;;5098158;28;20035;-64
2023/11/15 00:47:05;;;;;;;2.35;1.00;;;11.80;99.90;;;;;;5097860;28;20051;-63
2023/11/15 00:49:33;;;;;;;2.45;1.08;;;11.80;99.90;;;;;;5094088;28;20043;-64
2023/11/15 00:51:58;;;;;;;0.70;0.40;;;11.80;99.90;;;;;;5099604;27;20483;-63
2023/11/15 00:54:25;;;;;;;0.98;0.55;;;11.80;99.90;;;;;;5092955;28;20072;-64
2023/11/15 00:56:51;;;;;;;1.65;0.73;;;11.90;99.90;;;;;;5098192;28;20024;-64
2023/11/15 00:59:22;;;;;;;1.77;0.60;;;11.90;99.90;;;;;;5094997;28;20028;-64
2023/11/15 01:01:57;;;;;;;1.38;0.68;;;11.90;99.90;;;;;;5099855;28;20031;-63
2023/11/15 01:04:27;;;;;;;3.00;0.80;;;11.80;99.90;;;;;;5111943;28;20025;-64
2023/11/15 01:06:54;;;;;;;1.23;0.70;;;11.90;99.90;;;;;;5096321;28;20118;-63
2023/11/15 01:09:22;;;;;;;2.25;0.68;;;11.90;99.90;;;;;;5100815;28;20146;-63
2023/11/15 01:11:48;;;;;;;1.95;0.68;;;11.90;99.90;;;;;;5094286;28;20714;-63
2023/11/15 01:14:14;;;;;;;4.97;0.70;;;11.90;99.90;;;;;;5100330;28;20028;-63
2023/11/15 01:16:40;;;;;;;2.28;0.47;;;11.90;99.90;;;;;;5092992;28;20032;-63
2023/11/15 01:19:06;;;;;;;2.13;0.60;;;11.80;99.90;;;;;;5098933;28;20494;-63
2023/11/15 01:21:32;;;;;;;2.20;0.82;;;11.90;99.90;;;;;;5095517;28;20508;-64
2023/11/15 01:23:58;;;;;;;2.20;0.68;;;11.90;99.90;;;;;;5096920;28;20032;-64
2023/11/15 01:26:24;;;;;;;5.55;1.00;;;11.90;99.90;;;;;;5095456;28;20032;-64
2023/11/15 01:28:51;;;;;;;0.63;0.50;;;11.90;99.90;;;;;;5096890;28;20035;-64
2023/11/15 01:31:16;;;;;;;2.30;0.75;;;11.90;99.90;;;;;;5097688;28;20100;-64
2023/11/15 01:33:43;;;;;;;1.00;0.47;;;11.90;99.90;;;;;;5093827;28;20089;-64
2023/11/15 01:36:09;;;;;;;1.40;0.50;;;11.90;99.90;;;;;;5093241;28;20115;-64
2023/11/15 01:38:37;;;;;;;2.10;0.70;;;11.90;99.90;;;;;;5097468;28;20031;-63
2023/11/15 01:41:06;;;;;;;2.03;0.95;;;12.00;99.90;;;;;;5099735;28;20488;-63
2023/11/15 01:43:33;;;;;;;2.75;0.95;;;12.00;99.90;;;;;;5095297;28;20020;-64
2023/11/15 01:46:04;;;;;;;0.95;0.77;;;11.90;99.90;;;;;;5096135;28;20024;-63
2023/11/15 01:48:31;;;;;;;0.60;0.40;;;11.90;99.90;;;;;;5095701;28;20138;-63
2023/11/15 01:50:59;;;;;;;3.30;0.82;;;11.80;99.90;;;;;;5097796;28;20031;-63
2023/11/15 01:53:26;;;;;;;1.67;0.55;;;11.80;99.90;;;;;;5098768;28;20032;-63
2023/11/15 01:55:52;;;;;;;1.73;0.65;;;11.80;99.90;;;;;;5096179;28;20071;-64
2023/11/15 01:58:19;;;;;;;2.05;0.70;;;11.80;99.90;;;;;;5093886;28;20119;-64
2023/11/15 02:00:45;;;;;;;3.42;0.68;;;11.70;99.90;;;;;;5098338;28;20027;-64
2023/11/15 02:03:12;;;;;;;2.22;1.10;;;11.80;99.90;;;;;;5101759;28;20027;-64
2023/11/15 02:05:38;;;;;;;2.22;0.93;;;11.80;99.90;;;;;;5101197;28;20032;-63
2023/11/15 02:08:04;;;;;;;3.33;1.15;;;11.80;99.90;;;;;;5099765;28;20031;-64
2023/11/15 02:10:32;;;;;;;6.38;0.90;;;11.80;99.90;;;;;;5097578;28;20151;-64
2023/11/15 02:12:58;;;;;;;2.40;0.60;;;11.80;99.90;;;;;;5104272;28;20574;-63
2023/11/15 02:15:25;;;;;;;2.60;0.65;;;11.80;99.90;;;;;;5098581;28;20621;-63
2023/11/15 02:17:51;;;;;;;3.08;0.88;;;11.80;99.90;;;;;;5101637;28;20031;-64
2023/11/15 02:20:18;;;;;;;3.17;0.95;;;11.80;99.90;;;;;;5099383;28;20035;-64
2023/11/15 02:22:49;;;;;;;1.88;0.90;;;11.80;99.90;;;;;;5098902;28;20039;-63
2023/11/15 02:25:16;;;;;;;2.30;0.80;;;11.70;99.90;;;;;;5093004;28;20139;-64
2023/11/15 02:27:43;;;;;;;2.58;0.70;;;11.80;99.90;;;;;;5097611;27;20139;-64
2023/11/15 02:30:09;;;;;;;2.50;0.70;;;11.70;99.90;;;;;;5099838;28;20030;-64
2023/11/15 02:32:41;;;;;;;2.75;1.02;;;11.70;99.90;;;;;;5094229;28;20040;-64
2023/11/15 02:35:08;;;;;;;2.58;0.70;;;11.70;99.90;;;;;;5103251;28;20031;-64
2023/11/15 02:37:35;;;;;;;2.20;0.70;;;11.70;99.90;;;;;;5099689;28;20031;-64
2023/11/15 02:40:05;;;;;;;3.13;0.88;;;11.70;99.90;;;;;;5102387;28;20097;-63
2023/11/15 02:42:32;;;;;;;4.50;1.25;;;11.70;99.90;;;;;;5097997;28;20071;-63
2023/11/15 02:44:58;;;;;;;2.90;0.60;;;11.60;99.90;;;;;;5099809;28;20083;-63
2023/11/15 02:47:25;;;;;;;1.33;0.82;;;11.70;99.90;;;;;;5100454;28;20059;-63
2023/11/15 02:49:54;;;;;;;2.47;0.55;;;11.60;99.90;;;;;;5097797;28;20036;-63
2023/11/15 02:52:20;;;;;;;1.17;0.60;;;11.60;99.90;;;;;;5104246;28;20035;-63
2023/11/15 02:54:49;;;;;;;0.88;0.80;;;11.60;99.90;;;;;;5096938;28;20753;-63
2023/11/15 02:57:15;;;;;;;1.52;0.70;;;11.60;99.90;;;;;;5103222;28;20055;-64
2023/11/15 02:59:41;;;;;;;2.45;0.65;;;11.60;99.90;;;;;;5098426;28;20797;-63
2023/11/15 03:02:08;;;;;;;1.48;0.77;;;11.60;99.90;;;;;;5093307;27;20027;-63
2023/11/15 03:04:33;;;;;;;1.05;0.73;;;11.60;99.90;;;;;;5092178;28;20042;-64
2023/11/15 03:06:59;;;;;;;4.85;0.90;;;11.60;99.90;;;;;;5098708;28;20028;-63
2023/11/15 03:09:25;;;;;;;2.22;0.85;;;11.60;99.90;;;;;;5099170;28;20582;-64
2023/11/15 03:11:51;;;;;;;3.45;0.85;;;11.50;99.90;;;;;;5094232;28;20117;-63
2023/11/15 03:14:17;;;;;;;2.60;0.80;;;11.50;99.90;;;;;;5092398;28;20036;-63
2023/11/15 03:16:44;;;;;;;3.38;0.93;;;11.60;99.90;;;;;;5099979;28;20028;-63
2023/11/15 03:19:10;;;;;;;1.17;0.70;;;11.60;99.90;;;;;;5100686;28;20423;-64
2023/11/15 03:21:36;;;;;;;1.70;0.73;;;11.60;99.90;;;;;;5099162;28;20032;-64
2023/11/15 03:24:02;;;;;;;4.03;0.90;;;11.60;99.90;;;;;;5100406;28;20036;-63
2023/11/15 03:26:27;;;;;;;3.25;0.95;;;11.60;99.90;;;;;;5099124;28;20038;-63
2023/11/15 03:28:53;;;;;;;1.98;0.70;;;11.70;99.90;;;;;;5102489;28;20055;-64
2023/11/15 03:31:20;;;;;;;1.13;0.50;;;11.70;99.90;;;;;;5095709;28;20035;-63
2023/11/15 03:33:47;;;;;;;3.42;1.05;;;11.70;99.90;;;;;;5101784;28;20047;-64
2023/11/15 03:36:15;;;;;;;3.90;0.85;;;11.70;99.90;;;;;;5096760;28;20430;-63
2023/11/15 03:38:41;;;;;;;3.95;1.50;;;11.70;99.90;;;;;;5102327;28;20110;-63
2023/11/15 03:41:09;;;;;;;2.65;1.10;;;11.60;99.90;;;;;;5096040;28;20032;-63
2023/11/15 03:43:38;;;;;;;4.75;1.15;;;11.50;99.90;;;;;;5102912;28;20663;-63
2023/11/15 03:46:04;;;;;;;2.97;0.82;;;11.40;99.90;;;;;;5097585;28;20519;-63
2023/11/15 03:48:30;;;;;;;3.97;1.67;;;11.40;99.90;;;;;;5102174;28;20043;-64
2023/11/15 03:50:56;;;;;;;1.73;0.90;;;11.40;99.90;;;;;;5098482;28;20034;-64
2023/11/15 03:53:22;;;;;;;6.47;0.93;;;11.30;99.90;;;;;;5098444;28;20027;-63
2023/11/15 03:55:49;;;;;;;3.75;1.20;;;11.20;99.90;;;;;;5086224;28;20073;-63
2023/11/15 03:58:15;;;;;;;4.43;1.10;;;11.20;99.90;;;;;;5096383;28;20084;-64
2023/11/15 04:00:42;;;;;;;3.00;1.08;;;11.10;99.90;;;;;;5098038;28;20041;-63
2023/11/15 04:03:08;;;;;;;2.92;0.70;;;11.00;99.90;;;;;;5092287;28;20115;-65
2023/11/15 04:05:34;;;;;;;3.47;1.10;;;11.00;99.90;;;;;;5096121;28;20054;-65
2023/11/15 04:07:59;;;;;;;2.38;1.27;;;11.10;99.90;;;;;;5099241;28;20503;-65
2023/11/15 04:10:25;;;;;;;1.20;0.82;;;11.00;99.90;;;;;;5096872;28;20531;-65
2023/11/15 04:12:54;;;;;;;3.65;1.30;;;11.00;99.90;;;;;;5098033;28;20185;-65
2023/11/15 04:15:22;;;;;;;2.03;0.95;;;11.00;99.90;;;;;;5098942;28;20073;-64
2023/11/15 04:17:49;;;;;;;0.95;0.65;;;10.90;99.90;;;;;;5095345;28;20031;-63
2023/11/15 04:20:15;;;;;;;6.70;1.23;;;10.90;99.90;;;;;;5099977;28;20123;-65
2023/11/15 04:22:41;;;;;;;2.45;0.88;;;10.80;99.90;;;;;;5094204;28;20123;-63
2023/11/15 04:25:08;;;;;;;1.52;0.70;;;10.80;99.90;;;;;;5095193;28;20103;-64
2023/11/15 04:27:34;;;;;;;4.18;0.80;;;10.70;99.90;;;;;;5092624;28;20119;-63
2023/11/15 04:30:00;;;;;;;1.77;0.70;;;10.70;99.90;;;;;;5101751;28;20594;-64
2023/11/15 04:32:26;;;;;;;2.38;0.93;;;10.60;99.90;;;;;;5096194;28;20067;-64
2023/11/15 04:34:52;;;;;;;2.03;0.90;;;10.60;99.90;;;;;;5098555;28;20039;-63
2023/11/15 04:37:19;;;;;;;2.22;1.10;;;10.50;99.90;;;;;;5097653;28;20446;-63
2023/11/15 04:39:46;;;;;;;1.55;0.65;;;10.40;99.90;;;;;;5098876;28;20410;-66
2023/11/15 04:42:12;;;;;;;1.77;0.75;;;10.40;99.90;;;;;;5099065;28;20027;-63
2023/11/15 04:44:38;;;;;;;3.75;1.25;;;10.30;99.90;;;;;;5098802;28;20031;-63
2023/11/15 04:47:05;;;;;;;0.85;0.80;;;10.30;99.90;;;;;;5095689;28;20145;-64
2023/11/15 04:49:31;;;;;;;0.70;0.70;;;10.30;99.90;;;;;;5098203;28;20395;-64
2023/11/15 04:51:57;;;;;;;1.85;1.00;;;10.30;99.90;;;;;;5092450;28;20028;-64
2023/11/15 04:54:23;;;;;;;1.08;0.90;;;10.20;99.90;;;;;;5095894;28;20042;-64
2023/11/15 04:56:49;;;;;;;1.90;0.60;;;10.20;99.90;;;;;;5098117;28;20030;-64
2023/11/15 04:59:15;;;;;;;3.83;0.80;;;10.10;99.90;;;;;;5095163;28;20040;-64
2023/11/15 05:01:45;;;;;;;2.35;0.95;;;10.10;99.90;;;;;;5099996;28;20043;-64
2023/11/15 05:04:14;;;;;;;0.70;0.63;;;10.00;99.90;;;;;;5088374;28;20444;-64
2023/11/15 05:06:41;;;;;;;0.40;0.40;;;10.00;99.90;;;;;;5097312;28;20058;-64
2023/11/15 05:09:08;;;;;;;0.73;0.30;;;10.00;99.90;;;;;;5099347;28;20142;-64
2023/11/15 05:11:34;;;;;;;7.38;0.68;;;9.90;99.90;;;;;;5096882;28;20729;-64
2023/11/15 05:14:00;;;;;;;2.50;0.52;;;9.90;99.90;;;;;;5098252;28;20035;-64
2023/11/15 05:16:26;;;;;;;0.88;0.60;;;9.90;99.90;;;;;;5092102;28;20039;-64
2023/11/15 05:18:52;;;;;;;6.05;3.17;;;9.80;99.90;;;;;;5097979;28;20069;-63
2023/11/15 05:21:18;;;;;;;2.63;2.03;;;9.80;99.90;;;;;;5097718;28;20035;-64
2023/11/15 05:23:44;;;;;;;7.30;3.55;;;9.70;99.90;;;;;;5099573;28;20376;-64
2023/11/15 05:26:10;;;;;;;3.00;2.17;;;9.80;99.90;;;;;;5096988;28;20024;-63
2023/11/15 05:28:36;;;;;;;3.60;1.70;;;9.80;99.90;;;;;;5097353;28;20141;-64
2023/11/15 05:31:02;;;;;;;5.85;2.40;;;9.80;99.90;;;;;;5096539;28;20028;-63
2023/11/15 05:33:28;;;;;;;3.67;1.60;;;9.90;99.90;;;;;;5097323;28;20027;-63
2023/11/15 05:35:54;;;;;;;0.82;0.80;;;9.90;99.90;;;;;;5101139;28;20133;-63
2023/11/15 05:38:19;;;;;;;0.70;0.70;;;10.00;99.90;;;;;;5102006;28;20038;-64
2023/11/15 05:40:45;;;;;;;1.17;0.60;;;10.00;99.90;;;;;;5102109;28;20506;-63
2023/11/15 05:43:11;;;;;;;0.85;0.80;;;10.00;99.90;;;;;;5099037;28;20109;-62
2023/11/15 05:45:37;;;;;;;2.97;0.70;;;10.00;99.90;;;;;;5101775;28;20032;-65
2023/11/15 05:48:03;;;;;;;0.50;0.50;;;10.00;99.90;;;;;;5100468;28;20596;-64
2023/11/15 05:50:29;;;;;;;0.68;0.50;;;10.00;99.90;;;;;;5105583;28;20024;-64
2023/11/15 05:52:55;;;;;;;1.80;0.60;;;10.00;99.90;;;;;;5098438;28;20028;-64
2023/11/15 05:55:21;;;;;;;2.60;0.60;;;10.00;99.90;;;;;;5103557;28;20051;-65
2023/11/15 05:57:48;;;;;;;0.77;0.50;;;9.90;99.90;;;;;;5100544;28;20050;-64
2023/11/15 06:00:19;;;;;;;1.20;0.75;;;10.00;99.90;;;;;;5102669;28;20043;-64
2023/11/15 06:02:49;;;;;;;3.45;1.30;;;9.90;99.90;;;;;;5102438;28;20036;-64
2023/11/15 06:05:18;;;;;;;1.20;0.90;;;10.00;99.90;;;;;;5100161;28;20031;-64
2023/11/15 06:07:45;;;;;;;1.60;0.90;;;10.00;99.90;;;;;;5102120;28;20494;-64
2023/11/15 06:10:11;;;;;;;1.20;0.68;;;10.00;99.90;;;;;;5098154;28;20078;-64
2023/11/15 06:12:40;;;;;;;1.30;0.65;;;9.90;99.90;;;;;;5104843;28;20110;-64
2023/11/15 06:15:10;;;;;;;1.13;0.80;;;9.90;99.90;;;;;;5097218;28;20040;-64
2023/11/15 06:17:39;;;;;;;0.75;0.65;;;9.90;99.90;;;;;;5103481;28;20040;-64
2023/11/15 06:20:07;;;;;;;1.10;0.90;;;9.90;99.90;;;;;;5096851;28;20058;-64
2023/11/15 06:22:33;;;;;;;1.30;0.95;;;9.90;99.90;;;;;;5100757;28;20495;-64
2023/11/15 06:24:59;;;;;;;1.90;0.95;;;9.90;99.90;;;;;;5098093;28;20031;-64
2023/11/15 06:27:25;;;;;;;1.40;1.13;;;9.90;99.90;;;;;;5100045;28;20085;-64
2023/11/15 06:29:51;;;;;;;0.93;0.80;;;9.90;99.90;;;;;;5095797;28;20024;-64
2023/11/15 06:32:17;;;;;;;0.90;0.80;;;9.90;99.90;;;;;;5097460;28;20028;-64
2023/11/15 06:34:44;;;;;;;2.05;0.82;;;9.90;99.90;;;;;;5101950;28;20035;-65
2023/11/15 06:37:12;;;;;;;0.77;0.68;;;10.00;99.90;;;;;;5102761;28;20031;-64
2023/11/15 06:39:42;;;;;;;1.33;0.82;;;10.00;99.90;;;;;;5080173;28;20038;-64
2023/11/15 06:42:10;;;;;;;0.90;0.70;;;10.00;99.90;;;;;;5096153;28;20135;-64
2023/11/15 06:44:40;;;;;;;1.20;1.10;;;9.90;99.90;;;;;;5101680;28;20713;-64
2023/11/15 06:47:08;;;;;;;1.20;0.90;;;9.90;99.90;;;;;;5099795;28;20019;-64
2023/11/15 06:49:36;;;;;;;2.03;1.20;;;9.90;99.90;;;;;;5099969;28;20036;-64
2023/11/15 06:52:02;;;;;;;1.95;1.35;;;10.00;99.90;;;;;;5098324;28;20649;-64
2023/11/15 06:54:28;;;;;;;1.98;1.00;;;10.00;99.90;;;;;;5099808;28;20134;-62
2023/11/15 06:56:54;;;;;;;1.52;1.00;;;9.90;99.90;;;;;;5100701;28;20038;-65
2023/11/15 06:59:20;;;;;;;1.60;1.10;;;10.00;99.90;;;;;;5099259;28;20118;-65
2023/11/15 07:01:51;;;;;;;1.63;1.20;;;9.90;99.90;;;;;;5083506;27;20028;-65
2023/11/15 07:04:17;;;;;;;2.17;1.00;;;9.90;99.90;;;;;;5090920;28;20032;-65
2023/11/15 07:06:46;;;;;;;2.97;1.17;;;10.00;99.90;;;;;;5097332;28;20043;-64
2023/11/15 07:09:16;;;;;;;1.75;1.35;;;10.00;99.90;;;;;;5100410;28;20032;-65
2023/11/15 07:11:49;;;;;;;1.75;1.17;;;10.00;99.90;;;;;;5102081;28;20023;-64
2023/11/15 07:14:16;;;;;;;1.30;1.02;;;10.00;99.90;;;;;;5100023;28;20793;-64
2023/11/15 07:16:47;;;;;;;1.50;1.35;;;10.00;99.90;;;;;;5101039;28;20031;-64
2023/11/15 07:19:14;;;;;;;2.10;1.13;;;10.00;99.90;;;;;;5094892;28;20028;-64
2023/11/15 07:21:40;;;;;;;1.88;1.17;;;10.00;99.90;;;;;;5098429;28;20403;-64
2023/11/15 07:24:08;;;;;;;2.60;1.58;;;9.90;99.90;;;;;;5098963;28;20471;-65
2023/11/15 07:26:35;;;;;;;3.00;1.50;;;10.00;99.90;;;;;;5099417;28;20160;-64
2023/11/15 07:29:09;;;;;;;1.70;1.20;;;10.00;99.90;;;;;;5100438;28;20446;-64
2023/11/15 07:31:36;;;;;;;4.00;1.77;;;10.00;99.90;;;;;;5099210;28;20073;-64
2023/11/15 07:34:05;;;;;;;3.17;1.70;;;10.00;99.90;;;;;;5099156;28;20055;-64
2023/11/15 07:36:33;;;;;;;5.88;1.75;;;10.10;99.90;;;;;;5099341;28;20062;-64
2023/11/15 07:39:00;;;;;;;16.05;3.67;;;9.90;99.90;;;;;;5099528;28;20035;-64
2023/11/15 07:41:27;;;;;;;5.13;1.60;;;10.00;99.90;;;;;;5099819;28;20023;-64
2023/11/15 07:43:56;;;;;;;8.85;2.78;;;10.00;99.90;;;;;;5092444;28;20032;-64
2023/11/15 07:46:24;;;;;;;2.40;1.45;;;10.00;99.90;;;;;;5096084;28;20567;-64
2023/11/15 07:48:52;;;;;;;4.53;2.50;;;10.10;99.90;;;;;;5101153;28;20067;-65
2023/11/15 07:51:18;;;;;;;3.63;2.20;;;10.10;99.90;;;;;;5097517;28;20726;-64
2023/11/15 07:53:45;;;;;;;1.58;1.25;;;10.20;99.90;;;;;;5099458;28;20082;-64
2023/11/15 07:56:12;;;;;;;3.50;1.70;;;10.20;99.90;;;;;;5110721;27;20040;-64
2023/11/15 07:58:38;;;;;;;2.70;1.83;;;10.30;99.90;;;;;;5100516;28;20037;-64
2023/11/15 08:01:04;;;;;;;2.10;1.35;;;10.20;99.90;;;;;;5099750;28;20043;-64
2023/11/15 08:03:30;;;;;;;2.05;1.50;;;10.20;99.90;;;;;;5098600;28;20028;-64
2023/11/15 08:05:56;;;;;;;2.20;1.23;;;10.30;99.90;;;;;;5098254;28;20601;-64
2023/11/15 08:08:22;;;;;;;0.98;0.88;;;10.30;99.90;;;;;;5097938;28;20561;-64
2023/11/15 08:10:50;;;;;;;2.53;1.10;;;10.30;99.90;;;;;;5100269;28;20023;-64
2023/11/15 08:13:19;;;;;;;4.53;1.42;;;10.40;99.90;;;;;;5096650;28;20430;-64
2023/11/15 08:15:49;;;;;;;1.95;1.48;;;10.40;99.90;;;;;;5102203;28;20023;-64
2023/11/15 08:18:16;;;;;;;3.60;1.60;;;10.50;99.90;;;;;;5095584;28;20072;-64
2023/11/15 08:20:43;;;;;;;1.80;1.33;;;10.50;99.90;;;;;;5101296;28;20040;-64
2023/11/15 08:23:12;;;;;;;1.73;1.45;;;10.50;99.90;;;;;;5095815;28;20067;-64
2023/11/15 08:25:50;;;;;;;1.63;1.42;;;10.60;99.90;;;;;;5099181;28;20035;-65
2023/11/15 08:28:17;;;;;;;2.60;1.58;;;10.40;99.90;;;;;;5097761;28;20031;-64
2023/11/15 08:30:45;;;;;;;1.30;1.20;;;10.20;99.90;;;;;;5098524;27;20479;-64
2023/11/15 08:33:16;;;;;;;1.73;1.50;;;10.30;99.90;;;;;;5099866;28;20023;-64
2023/11/15 08:35:43;;;;;;;3.00;1.67;;;10.40;99.90;;;;;;5100063;28;20574;-66
2023/11/15 08:38:10;;;;;;;2.83;1.63;;;10.50;99.90;;;;;;5097278;28;20084;-64
2023/11/15 08:40:37;;;;;;;3.00;1.63;;;10.50;99.90;;;;;;5092461;28;20651;-64
2023/11/15 08:43:03;;;;;;;3.28;1.30;;;10.60;99.90;;;;;;5101925;28;20466;-64
2023/11/15 08:45:29;;;;;;;1.75;1.15;;;10.60;99.90;;;;;;5097037;28;20107;-68
2023/11/15 08:47:58;;;;;;;1.70;1.13;;;10.60;99.90;;;;;;5100237;28;20101;-64
2023/11/15 08:50:24;;;;;;;1.95;1.25;;;10.70;99.90;;;;;;5096208;28;20399;-64
2023/11/15 08:52:51;;;;;;;1.40;1.10;;;10.70;99.90;;;;;;5096685;28;20040;-64
2023/11/15 08:55:17;;;;;;;1.25;0.90;;;10.80;99.90;;;;;;5096902;28;20027;-64
2023/11/15 08:57:43;;;;;;;1.25;0.90;;;10.80;99.90;;;;;;5098858;28;20035;-64
2023/11/15 09:00:15;;;;;;;3.05;0.73;;;10.80;99.90;;;;;;5096764;28;20690;-63
2023/11/15 09:02:46;;;;;;;3.28;1.13;;;10.80;99.90;;;;;;5096450;28;20053;-63
2023/11/15 09:05:14;;;;;;;1.00;0.90;;;10.90;99.90;;;;;;5095292;28;20040;-64
2023/11/15 09:07:41;;;;;;;1.65;1.15;;;10.90;99.90;;;;;;5082211;28;20913;-64
2023/11/15 09:10:11;;;;;;;1.35;1.23;;;10.90;99.90;;;;;;5094622;28;20048;-64
2023/11/15 09:12:37;;;;;;;1.75;1.23;;;11.00;99.90;;;;;;5101087;28;20053;-64
2023/11/15 09:15:11;;;;;;;1.48;1.17;;;11.10;99.90;;;;;;5101309;28;20116;-64
2023/11/15 09:17:48;;;;;;;1.45;1.27;;;11.00;99.90;;;;;;5101011;28;20036;-64
2023/11/15 09:20:37;;;;;;;1.27;0.90;;;10.90;99.90;;;;;;5102168;28;20039;-64
2023/11/15 09:23:06;;;;;;;1.08;0.80;;;10.90;99.90;;;;;;5096455;28;20047;-63
2023/11/15 09:25:35;;;;;;;1.95;0.80;;;10.90;99.90;;;;;;5102609;28;20032;-63
2023/11/15 09:28:05;;;;;;;1.52;1.13;;;10.90;99.90;;;;;;5103162;28;20561;-64
2023/11/15 09:30:31;;;;;;;1.83;1.30;;;10.90;99.90;;;;;;5100925;28;20036;-64
2023/11/15 09:32:58;;;;;;;1.77;1.23;;;10.90;99.90;;;;;;5103105;28;20511;-64
2023/11/15 09:35:31;;;;;;;2.88;1.60;;;10.90;99.90;;;;;;5099234;28;20020;-63
2023/11/15 09:37:59;;;;;;;3.28;2.08;;;10.90;99.90;;;;;;5101582;27;20052;-64
2023/11/15 09:40:28;;;;;;;4.93;2.03;;;11.00;99.90;;;;;;5098092;28;20024;-63
2023/11/15 09:43:00;;;;;;;3.63;3.05;;;11.10;99.90;;;;;;5103804;28;20049;-64
2023/11/15 09:45:26;;;;;;;7.13;5.40;;;11.20;99.90;;;;;;5099436;28;20115;-63
2023/11/15 09:47:54;;;;;;;4.13;1.90;;;11.20;99.90;;;;;;5099731;28;20023;-64
2023/11/15 09:50:24;;;;;;;3.25;2.17;;;11.20;99.90;;;;;;5102689;28;20032;-63
2023/11/15 09:52:51;;;;;;;1.75;1.45;;;11.20;99.90;;;;;;5100392;28;20064;-63
2023/11/15 09:55:24;;;;;;;1.67;1.50;;;11.20;99.90;;;;;;5102520;28;20027;-63
2023/11/15 09:57:51;;;;;;;2.03;1.10;;;11.30;99.90;;;;;;5099363;28;20447;-63
2023/11/15 10:00:21;;;;;;;3.60;2.35;;;11.30;99.90;;;;;;5102974;27;20024;-63
2023/11/15 10:02:50;;;;;;;2.70;1.90;;;11.30;99.90;;;;;;5100375;28;20031;-64
2023/11/15 10:05:31;;;;;;;3.35;1.90;;;11.30;99.90;;;;;;5104325;28;20023;-64
2023/11/15 10:08:15;;;;;;;1.10;1.00;;;11.50;99.90;;;;;;5098724;28;20042;-63
2023/11/15 10:10:44;;;;;;;1.65;0.90;;;11.40;99.90;;;;;;5093893;28;20028;-63
2023/11/15 10:13:18;;;;;;;1.98;1.45;;;11.50;99.90;;;;;;5098780;28;20531;-63
2023/11/15 10:15:46;;;;;;;1.40;1.10;;;11.90;99.90;;;;;;5098264;28;20066;-63
2023/11/15 10:18:28;;;;;;;3.40;1.50;;;12.20;99.90;;;;;;5098381;28;20535;-64
2023/11/15 10:21:07;;;;;;;3.92;2.78;;;12.20;99.70;;;;;;5097324;28;20063;-63
2023/11/15 10:23:33;;;;;;;1.38;1.17;;;12.30;99.50;;;;;;5103154;28;20114;-64
2023/11/15 10:26:00;;;;;;;7.03;2.58;;;12.20;99.70;;;;;;5100240;28;20107;-63
2023/11/15 10:28:34;;;;;;;3.20;1.98;;;12.20;99.60;;;;;;5102205;28;20766;-63
2023/11/15 10:31:07;;;;;;;1.42;1.33;;;12.30;99.50;;;;;;5099095;28;20039;-64
2023/11/15 10:33:34;;;;;;;1.60;0.93;;;12.40;99.00;;;;;;5099693;28;20036;-64
2023/11/15 10:36:17;;;;;;;1.20;0.82;;;12.50;98.30;;;;;;5093883;28;20032;-64
2023/11/15 10:38:54;;;;;;;1.75;1.10;;;12.50;98.50;;;;;;5099604;28;20154;-64
2023/11/15 10:41:25;;;;;;;2.85;1.00;;;12.60;98.40;;;;;;5102725;28;20036;-64
2023/11/15 10:43:54;;;;;;;0.88;0.82;;;12.80;97.80;;;;;;5099585;28;20558;-64
2023/11/15 10:46:30;;;;;;;0.80;0.65;;;12.80;97.90;;;;;;5100920;28;20491;-65
2023/11/15 10:48:59;;;;;;;3.35;1.10;;;12.90;98.20;;;;;;5099161;28;20077;-63
2023/11/15 10:51:35;;;;;;;1.00;0.77;;;13.40;97.20;;;;;;5097285;28;20495;-64
2023/11/15 10:54:04;;;;;;;1.60;0.82;;;13.80;96.60;;;;;;5101035;28;20114;-64
2023/11/15 10:56:33;;;;;;;1.10;0.65;;;14.00;95.30;;;;;;5098390;28;20032;-64
2023/11/15 10:59:01;;;;;;;1.05;0.93;;;14.30;94.90;;;;;;5097308;27;20042;-59
2023/11/15 11:01:34;;;;;;;2.40;0.90;;;14.10;94.40;;;;;;5097817;28;20091;-63
2023/11/15 11:04:07;;;;;;;1.20;0.77;;;13.80;95.00;;;;;;5103710;28;20038;-64
2023/11/15 11:06:37;;;;;;;0.75;0.75;;;13.50;95.30;;;;;;5097640;28;20547;-64
2023/11/15 11:09:22;;;;;;;2.30;0.80;;;13.30;95.60;;;;;;5101426;28;20027;-64
2023/11/15 11:12:10;;;;;;;4.15;1.13;;;13.10;96.20;;;;;;5101103;28;20032;-64
2023/11/15 11:14:38;;;;;;;0.90;0.73;;;12.90;96.60;;;;;;5096431;28;20898;-64
2023/11/15 11:17:33;;;;;;;0.50;0.50;;;12.80;96.60;;;;;;5099357;28;20035;-64
2023/11/15 11:20:09;;;;;;;1.20;0.77;;;12.70;96.80;;;;;;5101070;28;20077;-64
2023/11/15 11:22:35;;;;;;;0.77;0.73;;;12.80;97.10;;;;;;5098240;28;20474;-64
2023/11/15 11:25:06;;;;;;;2.60;1.35;;;12.80;96.80;;;;;;5101167;28;20036;-64
2023/11/15 11:27:34;;;;;;;2.47;0.80;;;12.80;96.90;;;;;;5098336;28;20059;-63
2023/11/15 11:30:02;;;;;;;0.50;0.50;;;12.80;96.20;;;;;;5099544;28;20032;-64
2023/11/15 11:32:34;;;;;;;0.73;0.40;;;12.90;96.80;;;;;;5096715;28;20026;-64
2023/11/15 11:35:00;;;;;;;0.55;0.50;;;13.00;96.60;;;;;;5101777;28;20028;-64
2023/11/15 11:37:47;;;;;;;0.95;0.60;;;13.00;96.40;;;;;;5097226;28;20076;-62
2023/11/15 11:40:17;;;;;;;;;;;13.10;95.70;;;;;;5099374;28;20518;-64
2023/11/15 11:42:44;;;;;;;0.65;0.50;;;13.10;95.50;;;;;;5098329;28;20568;-64
2023/11/15 11:45:12;;;;;;;0.40;0.40;;;13.10;95.40;;;;;;5098008;28;20024;-63
2023/11/15 11:47:45;;;;;;;0.80;0.45;;;13.10;95.70;;;;;;5100921;28;20034;-63
2023/11/15 11:50:17;;;;;;;0.85;0.60;;;13.10;95.50;;;;;;5097249;28;20040;-63
2023/11/15 11:52:44;;;;;;;2.65;0.90;;;13.20;95.60;;;;;;5102811;28;20042;-63
2023/11/15 11:55:11;;;;;;;3.53;0.63;;;13.20;95.50;;;;;;5093376;28;20036;-63
2023/11/15 11:57:38;;;;;;;4.57;0.82;;;13.20;94.70;;;;;;5099911;28;20051;-63
2023/11/15 12:00:14;;;;;;;1.10;0.68;;;13.10;95.40;;;;;;5098428;28;20039;-64
2023/11/15 12:02:45;;;;;;;2.08;0.60;;;13.00;95.60;;;;;;5099538;28;20111;-64
2023/11/15 12:05:12;;;;;;;3.17;0.70;;;13.10;95.70;;;;;;5097158;28;20551;-64
2023/11/15 12:07:45;;;;;;;0.95;0.77;;;13.10;95.20;;;;;;5101080;28;20218;-63
2023/11/15 12:10:13;;;;;;;1.02;0.70;;;13.10;95.20;;;;;;5096531;28;20131;-63
2023/11/15 12:12:46;;;;;;;1.33;1.23;;;13.20;95.70;;;;;;5098310;28;20039;-64
2023/11/15 12:15:15;;;;;;;0.40;0.30;;;13.20;95.00;;;;;;5098357;28;20035;-64
2023/11/15 12:17:44;;;;;;;0.40;0.40;;;13.20;94.30;;;;;;5096489;28;20111;-64
2023/11/15 12:20:13;;;;;;;0.22;0.22;;;13.20;94.80;;;;;;5097205;28;20509;-62
2023/11/15 12:22:44;;;;;;;0.32;0.30;;;13.20;94.80;;;;;;5095307;28;20027;-63
2023/11/15 12:25:16;;;;;;;0.50;0.32;;;13.20;94.60;;;;;;5097949;28;20057;-64
2023/11/15 12:27:45;;;;;;;0.70;0.52;;;13.20;94.30;;;;;;5096446;28;20027;-64
2023/11/15 12:30:12;;;;;;;3.13;1.40;;;13.10;94.60;;;;;;5097092;28;20028;-64
2023/11/15 12:32:44;;;;;;;0.20;0.20;;;13.00;94.60;;;;;;5098375;28;20104;-64
2023/11/15 12:35:14;;;;;;;1.40;0.30;;;12.90;94.40;;;;;;5096541;28;20058;-63
2023/11/15 12:37:41;;;;;;;0.20;0.20;;;12.80;93.80;;;;;;5098161;28;20081;-64
2023/11/15 12:40:17;;;;;;;0.38;0.30;;;12.70;93.90;;;;;;5099978;28;20031;-64
2023/11/15 12:42:43;;;;;;;0.38;0.38;;;12.60;94.50;;;;;;5096936;28;20135;-63
2023/11/15 12:45:29;;;;;;;0.50;0.50;;;12.60;94.90;;;;;;5095503;28;20023;-63
2023/11/15 12:48:07;;;;;;;0.30;0.30;;;12.60;94.90;;;;;;5100760;28;20038;-63
2023/11/15 12:50:35;;;;;;;0.65;0.30;;;12.50;95.40;;;;;;5092720;28;20043;-64
2023/11/15 12:53:09;;;;;;;0.30;0.30;;;12.60;95.10;;;;;;5095755;28;20031;-63